createdAt,value
2017-03-18T00:07:32.317Z,0
2017-03-18T00:17:32.365Z,0
2017-03-18T00:27:32.331Z,0
2017-03-18T00:37:32.392Z,0
2017-03-18T00:47:32.345Z,0
2017-03-18T00:57:32.404Z,0
2017-03-18T01:07:32.371Z,0
2017-03-18T01:17:32.348Z,0
2017-03-18T01:27:32.395Z,0
2017-03-18T01:37:32.340Z,0
2017-03-18T01:47:32.409Z,0
2017-03-18T01:57:32.374Z,0
2017-03-18T02:07:32.499Z,0
2017-03-18T02:17:32.398Z,0
2017-03-18T02:27:32.438Z,0
2017-03-18T02:37:32.437Z,0
2017-03-18T02:47:32.473Z,0
2017-03-18T02:57:32.448Z,0
2017-03-18T03:07:32.485Z,0
2017-03-18T03:17:32.477Z,0
2017-03-18T03:27:32.427Z,0
2017-03-18T03:37:32.502Z,0
2017-03-18T03:47:32.447Z,0
2017-03-18T03:57:32.553Z,0
2017-03-18T04:07:32.465Z,0
2017-03-18T04:17:32.547Z,0
2017-03-18T04:27:32.497Z,0
2017-03-18T04:37:32.565Z,0
2017-03-18T04:47:32.696Z,0
2017-03-18T04:57:32.571Z,0
2017-03-18T05:07:32.542Z,0
2017-03-18T05:17:32.607Z,0
2017-03-18T05:27:32.513Z,12
2017-03-18T05:37:32.667Z,36
2017-03-18T05:47:32.595Z,72
2017-03-18T05:57:32.575Z,164
2017-03-18T06:07:32.576Z,248
2017-03-18T06:17:32.671Z,428
2017-03-18T06:27:32.612Z,628
2017-03-18T06:37:32.714Z,824
2017-03-18T06:47:33.002Z,1692
2017-03-18T06:57:32.679Z,1484
2017-03-18T07:07:32.670Z,1524
2017-03-18T07:17:32.714Z,1932
2017-03-18T07:27:32.668Z,1140
2017-03-18T07:37:32.736Z,2744
2017-03-18T07:47:32.703Z,2320
2017-03-18T07:57:32.751Z,2952
2017-03-18T08:07:32.726Z,3112
2017-03-18T08:17:32.799Z,4136
2017-03-18T08:27:32.770Z,2688
2017-03-18T08:37:32.708Z,3232
2017-03-18T08:47:32.697Z,3888
2017-03-18T08:57:32.771Z,3596
2017-03-18T09:07:32.770Z,10560
2017-03-18T09:17:32.737Z,8700
2017-03-18T09:27:32.819Z,8948
2017-03-18T09:37:32.787Z,3820
2017-03-18T09:47:32.822Z,5252
2017-03-18T09:57:32.818Z,10336
2017-03-18T10:07:32.860Z,14504
2017-03-18T10:17:32.828Z,12220
2017-03-18T10:27:33.073Z,13204
2017-03-18T10:37:32.854Z,11992
2017-03-18T10:47:32.935Z,13788
2017-03-18T10:57:32.855Z,14656
2017-03-18T11:07:32.986Z,13756
2017-03-18T11:17:32.863Z,11720
2017-03-18T11:27:33.588Z,16856
2017-03-18T11:37:32.873Z,13800
2017-03-18T11:47:32.919Z,14268
2017-03-18T11:57:32.935Z,11216
2017-03-18T12:07:32.912Z,13300
2017-03-18T12:17:32.886Z,16300
2017-03-18T12:27:32.909Z,16116
2017-03-18T12:37:32.935Z,14808
2017-03-18T12:47:33.547Z,13312
2017-03-18T12:57:32.950Z,9280
2017-03-18T13:07:33.068Z,10780
2017-03-18T13:17:32.942Z,12508
2017-03-18T13:27:32.972Z,5192
2017-03-18T13:37:32.990Z,6380
2017-03-18T13:47:33.009Z,9404
2017-03-18T13:57:32.995Z,4484
2017-03-18T14:07:32.984Z,7552
2017-03-18T14:17:33.128Z,6712
2017-03-18T14:27:33.023Z,5900
2017-03-18T14:37:33.019Z,3184
2017-03-18T14:47:33.041Z,4584
2017-03-18T14:57:33.080Z,9624
2017-03-18T15:07:33.071Z,5744
2017-03-18T15:17:33.061Z,7020
2017-03-18T15:27:33.096Z,6652
2017-03-18T15:37:33.097Z,5824
2017-03-18T15:47:33.061Z,3752
2017-03-18T15:57:33.124Z,3056
2017-03-18T16:07:33.174Z,2292
2017-03-18T16:17:33.173Z,2204
2017-03-18T16:27:33.198Z,1632
2017-03-18T16:37:33.161Z,996
2017-03-18T16:47:33.238Z,1244
2017-03-18T16:57:33.210Z,712
2017-03-18T17:07:33.243Z,760
2017-03-18T17:17:33.247Z,248
2017-03-18T17:27:33.343Z,168
2017-03-18T17:37:33.310Z,84
2017-03-18T17:47:33.215Z,32
2017-03-18T17:57:33.257Z,12
2017-03-18T18:07:33.332Z,0
2017-03-18T18:17:33.290Z,0
2017-03-18T18:27:33.380Z,0
2017-03-18T18:37:34.331Z,0
2017-03-18T18:47:33.271Z,0
2017-03-18T18:57:33.339Z,0
2017-03-18T19:07:33.289Z,0
2017-03-18T19:17:33.362Z,0
2017-03-18T19:27:38.450Z,0
2017-03-18T19:37:33.408Z,0
2017-03-18T19:47:33.515Z,0
2017-03-18T19:57:33.437Z,0
2017-03-18T20:07:33.402Z,0
2017-03-18T20:17:33.413Z,0
2017-03-18T20:27:33.416Z,0
2017-03-18T20:37:33.809Z,0
2017-03-18T20:47:33.599Z,0
2017-03-18T20:57:33.468Z,0
2017-03-18T21:07:33.520Z,0
2017-03-18T21:17:33.517Z,0
2017-03-18T21:27:33.437Z,0
2017-03-18T21:37:33.484Z,0
2017-03-18T21:47:33.726Z,0
2017-03-18T21:57:33.511Z,0
2017-03-18T22:07:33.465Z,0
2017-03-18T22:17:33.535Z,0
2017-03-18T22:27:33.519Z,0
2017-03-18T22:37:33.569Z,0
2017-03-18T22:47:33.489Z,0
2017-03-18T22:57:33.587Z,0
2017-03-18T23:07:33.562Z,0
2017-03-18T23:17:33.559Z,0
2017-03-18T23:27:33.547Z,0
2017-03-18T23:37:33.532Z,0
2017-03-18T23:47:33.587Z,0
2017-03-18T23:57:33.580Z,0
